Sequoia National Park, California
Current Conditions -  °F | °C
As of 7:15 PM on Monday 20 Oct 2014 (Local Time) from KVIS Reporting Station
Clear Clear  
Wind Chill: 72°   Ceiling: Unl
Heat Index: 72°   Visibility: 10mi
Dew Point: 54°   Wind: 9mph
Humidity: 53%   Direction: 310°NW
Pressure: 29.91"   Gusts: NA
Location:  36.5932°N, 118.838°W
Report Text: KVIS 210215Z 31008KT 10SM CLR 22/12 A2991 RMK AO1
Loading
Personal Weather Stations






























Interactive Weather Map New forecast layout! Learn more

10-Day Weather Forecast

Advertisements
Track Severe Weather on mobile